createdAt,value
2024-02-18T00:01:17.103Z,10.33
2024-02-18T00:03:43.974Z,9.87
2024-02-18T00:06:10.707Z,11.20
2024-02-18T00:08:37.444Z,8.97
2024-02-18T00:11:04.241Z,10.87
2024-02-18T00:13:31.244Z,11.10
2024-02-18T00:15:58.181Z,10.57
2024-02-18T00:18:26.644Z,10.57
2024-02-18T00:20:54.802Z,10.17
2024-02-18T00:23:21.453Z,10.63
2024-02-18T00:25:48.304Z,10.20
2024-02-18T00:28:14.864Z,10.33
2024-02-18T00:30:41.808Z,12.40
2024-02-18T00:33:09.637Z,11.60
2024-02-18T00:35:36.441Z,10.87
2024-02-18T00:38:03.179Z,11.70
2024-02-18T00:40:30.145Z,9.93
2024-02-18T00:42:56.950Z,9.70
2024-02-18T00:45:23.767Z,11.17
2024-02-18T00:47:50.558Z,10.73
2024-02-18T00:50:17.469Z,11.10
2024-02-18T00:52:44.159Z,11.80
2024-02-18T00:55:11.136Z,11.47
2024-02-18T00:57:37.846Z,10.03
2024-02-18T01:00:05.842Z,10.13
2024-02-18T01:02:32.559Z,9.67
2024-02-18T01:04:59.344Z,11.77
2024-02-18T01:07:26.689Z,11.30
2024-02-18T01:09:53.395Z,9.67
2024-02-18T01:12:20.396Z,10.10
2024-02-18T01:14:47.793Z,9.57
2024-02-18T01:17:14.680Z,8.17
2024-02-18T01:19:41.495Z,10.33
2024-02-18T01:22:08.196Z,10.40
2024-02-18T01:24:35.195Z,10.10
2024-02-18T01:27:01.886Z,10.17
2024-02-18T01:29:28.624Z,10.10
2024-02-18T01:31:55.877Z,9.73
2024-02-18T01:34:22.846Z,10.57
2024-02-18T01:36:49.634Z,9.47
2024-02-18T01:39:16.294Z,9.80
2024-02-18T01:41:43.058Z,9.30
2024-02-18T01:44:09.802Z,9.60
2024-02-18T01:46:36.429Z,9.33
2024-02-18T01:49:04.802Z,9.20
2024-02-18T01:51:31.700Z,10.33
2024-02-18T01:53:58.596Z,9.90
2024-02-18T01:56:25.359Z,9.60
2024-02-18T01:58:52.494Z,9.67
2024-02-18T02:01:19.518Z,10.83
2024-02-18T02:03:47.348Z,10.30
2024-02-18T02:06:16.410Z,9.10
2024-02-18T02:08:43.169Z,10.00
2024-02-18T02:11:10.085Z,9.67
2024-02-18T02:13:36.833Z,10.80
2024-02-18T02:16:03.879Z,12.03
2024-02-18T02:18:30.966Z,9.43
2024-02-18T02:20:57.865Z,9.40
2024-02-18T02:23:24.674Z,10.97
2024-02-18T02:25:52.822Z,9.33
2024-02-18T02:28:30.656Z,10.13
2024-02-18T02:30:57.582Z,7.87
2024-02-18T02:33:24.845Z,10.20
2024-02-18T02:35:52.239Z,10.57
2024-02-18T02:38:18.936Z,9.80
2024-02-18T02:40:45.566Z,9.60
2024-02-18T02:43:13.925Z,8.77
2024-02-18T02:45:40.613Z,7.20
2024-02-18T02:48:07.586Z,9.47
2024-02-18T02:50:37.585Z,9.87
2024-02-18T02:53:06.120Z,9.83
2024-02-18T02:55:33.488Z,9.70
2024-02-18T02:58:01.277Z,10.50
2024-02-18T03:00:28.523Z,10.20
2024-02-18T03:02:55.400Z,10.07
2024-02-18T03:05:22.526Z,11.00
2024-02-18T03:07:49.411Z,10.53
2024-02-18T03:10:16.170Z,10.77
2024-02-18T03:12:43.150Z,11.73
2024-02-18T03:15:10.124Z,9.97
2024-02-18T03:17:37.345Z,10.60
2024-02-18T03:20:08.905Z,9.30
2024-02-18T03:22:35.764Z,10.90
2024-02-18T03:25:03.127Z,10.13
2024-02-18T03:27:30.102Z,8.87
2024-02-18T03:29:56.860Z,9.10
2024-02-18T03:32:23.473Z,8.63
2024-02-18T03:34:50.807Z,8.10
2024-02-18T03:37:17.629Z,8.33
2024-02-18T03:39:44.520Z,8.93
2024-02-18T03:42:11.098Z,10.03
2024-02-18T03:44:37.643Z,8.90
2024-02-18T03:47:04.576Z,10.90
2024-02-18T03:49:31.739Z,8.80
2024-02-18T03:51:58.719Z,6.70
2024-02-18T03:54:25.701Z,10.57
2024-02-18T03:56:53.042Z,9.13
2024-02-18T03:59:19.872Z,10.20
2024-02-18T04:01:46.955Z,9.30
2024-02-18T04:04:13.827Z,7.93
2024-02-18T04:06:40.907Z,8.37
2024-02-18T04:09:09.436Z,8.70
2024-02-18T04:11:36.252Z,11.90
2024-02-18T04:14:03.003Z,10.70
2024-02-18T04:16:29.851Z,8.23
2024-02-18T04:18:56.638Z,7.80
2024-02-18T04:21:23.610Z,8.57
2024-02-18T04:23:50.317Z,10.40
2024-02-18T04:26:17.394Z,9.23
2024-02-18T04:28:47.063Z,9.47
2024-02-18T04:31:13.885Z,9.03
2024-02-18T04:33:40.989Z,9.30
2024-02-18T04:36:08.801Z,8.43
2024-02-18T04:38:35.619Z,8.70
2024-02-18T04:41:02.289Z,10.43
2024-02-18T04:43:29.125Z,9.03
2024-02-18T04:45:55.934Z,9.40
2024-02-18T04:48:23.063Z,8.60
2024-02-18T04:50:49.909Z,8.73
2024-02-18T04:53:16.655Z,8.50
2024-02-18T04:55:43.392Z,12.03
2024-02-18T04:58:10.208Z,9.77
2024-02-18T05:00:36.928Z,9.10
2024-02-18T05:03:04.077Z,11.70
2024-02-18T05:05:30.855Z,8.70
2024-02-18T05:07:57.741Z,7.33
2024-02-18T05:10:24.402Z,9.73
2024-02-18T05:12:51.252Z,8.00
2024-02-18T05:15:18.973Z,7.77
2024-02-18T05:17:45.861Z,8.80
2024-02-18T05:20:13.679Z,7.00
2024-02-18T05:22:41.218Z,8.63
2024-02-18T05:25:07.949Z,9.13
2024-02-18T05:27:34.917Z,7.33
2024-02-18T05:30:01.762Z,8.93
2024-02-18T05:32:28.811Z,7.97
2024-02-18T05:34:55.777Z,8.93
2024-02-18T05:37:22.654Z,8.40
2024-02-18T05:39:49.705Z,8.67
2024-02-18T05:42:16.293Z,8.10
2024-02-18T05:44:44.149Z,8.60
2024-02-18T05:47:10.912Z,7.90
2024-02-18T05:49:42.347Z,7.60
2024-02-18T05:52:11.572Z,7.83
2024-02-18T05:54:38.598Z,9.63
2024-02-18T05:57:07.017Z,8.27
2024-02-18T05:59:33.942Z,7.60
2024-02-18T06:02:00.618Z,8.50
2024-02-18T06:04:27.481Z,10.00
2024-02-18T06:06:54.320Z,6.87
2024-02-18T06:09:21.296Z,9.40
2024-02-18T06:11:48.202Z,8.70
2024-02-18T06:14:14.903Z,10.90
2024-02-18T06:16:41.734Z,9.47
2024-02-18T06:19:10.183Z,7.83
2024-02-18T06:21:38.248Z,7.40
2024-02-18T06:24:05.148Z,14.07
2024-02-18T06:26:31.838Z,17.93
2024-02-18T06:28:58.882Z,12.40
2024-02-18T06:31:25.684Z,8.23
2024-02-18T06:33:52.434Z,13.73
2024-02-18T06:36:19.204Z,10.20
2024-02-18T06:38:45.965Z,9.00
2024-02-18T06:41:13.021Z,8.40
2024-02-18T06:43:39.754Z,9.30
2024-02-18T06:46:08.088Z,8.93
2024-02-18T06:48:36.610Z,7.20
2024-02-18T06:51:03.368Z,8.60
2024-02-18T06:53:29.941Z,8.37
2024-02-18T06:55:56.650Z,8.17
2024-02-18T06:58:23.280Z,10.63
2024-02-18T07:00:50.142Z,8.80
2024-02-18T07:03:16.924Z,7.97
2024-02-18T07:05:44.008Z,8.17
2024-02-18T07:08:10.697Z,7.87
2024-02-18T07:10:37.735Z,7.20
2024-02-18T07:13:04.616Z,10.07
2024-02-18T07:15:31.522Z,8.33
2024-02-18T07:17:58.239Z,8.47
2024-02-18T07:20:26.016Z,8.30
2024-02-18T07:22:52.876Z,8.23
2024-02-18T07:25:19.748Z,8.57
2024-02-18T07:27:46.474Z,10.03
2024-02-18T07:30:13.721Z,8.93
2024-02-18T07:32:40.449Z,9.07
2024-02-18T07:35:07.438Z,10.43
2024-02-18T07:37:34.405Z,8.87
2024-02-18T07:40:01.063Z,10.27
2024-02-18T07:42:27.789Z,9.90
2024-02-18T07:44:54.662Z,9.93
2024-02-18T07:47:21.515Z,10.00
2024-02-18T07:49:48.446Z,9.70
2024-02-18T07:52:15.163Z,10.27
2024-02-18T07:54:48.267Z,10.13
2024-02-18T07:57:15.735Z,10.47
2024-02-18T07:59:42.654Z,10.30
2024-02-18T08:02:09.479Z,8.90
2024-02-18T08:04:36.704Z,9.70
2024-02-18T08:07:04.752Z,13.60
2024-02-18T08:09:31.692Z,11.00
2024-02-18T08:11:59.261Z,11.53
2024-02-18T08:14:26.005Z,11.00
2024-02-18T08:16:53.468Z,12.13
2024-02-18T08:19:20.425Z,12.13
2024-02-18T08:21:47.215Z,13.70
2024-02-18T08:24:14.921Z,11.30
2024-02-18T08:26:48.655Z,11.73
2024-02-18T08:29:15.289Z,11.00
2024-02-18T08:31:41.884Z,12.87
2024-02-18T08:34:08.705Z,12.43
2024-02-18T08:36:35.601Z,11.33
2024-02-18T08:39:02.592Z,9.97
2024-02-18T08:41:29.297Z,8.90
2024-02-18T08:43:56.059Z,8.83
2024-02-18T08:46:23.868Z,9.33
2024-02-18T08:48:51.965Z,8.30
2024-02-18T08:51:19.185Z,8.17
2024-02-18T08:53:45.796Z,9.57
2024-02-18T08:56:14.384Z,8.87
2024-02-18T08:58:40.999Z,10.20
2024-02-18T09:01:08.326Z,9.37
2024-02-18T09:03:35.332Z,8.73
2024-02-18T09:06:02.169Z,7.70
2024-02-18T09:08:28.933Z,8.03
2024-02-18T09:10:55.848Z,8.00
2024-02-18T09:13:23.045Z,8.97
2024-02-18T09:15:50.627Z,7.60
2024-02-18T09:18:18.556Z,7.10
2024-02-18T09:20:45.675Z,7.63
2024-02-18T09:23:12.538Z,7.33
2024-02-18T09:25:39.253Z,7.87
2024-02-18T09:28:07.238Z,8.10
2024-02-18T09:30:34.050Z,6.93
2024-02-18T09:33:00.774Z,7.20
2024-02-18T09:35:28.915Z,8.27
2024-02-18T09:37:56.005Z,7.17
2024-02-18T09:40:23.976Z,6.53
2024-02-18T09:42:52.165Z,6.43
2024-02-18T09:45:27.454Z,5.93
2024-02-18T09:47:55.228Z,5.93
2024-02-18T09:50:21.905Z,6.07
2024-02-18T09:52:48.783Z,6.60
2024-02-18T09:55:16.492Z,5.77
2024-02-18T09:57:43.183Z,5.67
2024-02-18T10:00:10.196Z,5.93
2024-02-18T10:02:40.625Z,5.00
2024-02-18T10:05:11.199Z,5.50
2024-02-18T10:07:38.519Z,4.83
2024-02-18T10:10:06.365Z,6.93
2024-02-18T10:12:34.428Z,5.00
2024-02-18T10:15:05.241Z,6.00
2024-02-18T10:17:34.566Z,7.20
2024-02-18T10:20:02.692Z,6.40
2024-02-18T10:22:29.943Z,6.00
2024-02-18T10:24:57.225Z,4.97
2024-02-18T10:27:24.415Z,6.50
2024-02-18T10:29:52.595Z,6.10
2024-02-18T10:32:20.001Z,5.47
2024-02-18T10:34:49.464Z,6.40
2024-02-18T10:37:37.779Z,4.60
2024-02-18T10:40:17.942Z,7.50
2024-02-18T10:42:49.036Z,7.40
2024-02-18T10:45:15.837Z,6.30
2024-02-18T10:47:46.150Z,6.07
2024-02-18T10:50:13.793Z,5.43
2024-02-18T10:52:52.289Z,5.50
2024-02-18T10:55:41.545Z,5.47
2024-02-18T10:58:18.338Z,5.70
2024-02-18T11:00:47.282Z,6.00
2024-02-18T11:03:31.777Z,6.13
2024-02-18T11:06:01.806Z,4.60
2024-02-18T11:08:31.204Z,5.80
2024-02-18T11:10:58.077Z,5.50
2024-02-18T11:13:26.876Z,6.53
2024-02-18T11:15:54.179Z,4.30
2024-02-18T11:18:21.373Z,5.23
2024-02-18T11:20:48.516Z,6.47
2024-02-18T11:23:15.270Z,5.07
2024-02-18T11:25:44.281Z,4.47
2024-02-18T11:28:11.136Z,4.30
2024-02-18T11:30:38.021Z,5.20
2024-02-18T11:33:06.497Z,6.67
2024-02-18T11:35:33.233Z,5.03
2024-02-18T11:38:00.684Z,4.57
2024-02-18T11:40:27.561Z,5.23
2024-02-18T11:42:55.849Z,3.60
2024-02-18T11:45:24.750Z,3.83
2024-02-18T11:47:53.390Z,4.40
2024-02-18T11:50:21.396Z,4.03
2024-02-18T11:52:48.879Z,5.10
2024-02-18T11:55:20.657Z,4.73
2024-02-18T11:57:48.363Z,4.70
2024-02-18T12:00:20.061Z,4.10
2024-02-18T12:02:56.814Z,5.07
2024-02-18T12:05:24.961Z,3.10
2024-02-18T12:07:53.797Z,4.03
2024-02-18T12:10:20.591Z,4.63
2024-02-18T12:12:47.682Z,4.70
2024-02-18T12:15:22.668Z,3.50
2024-02-18T12:17:51.171Z,3.43
2024-02-18T12:20:20.317Z,4.60
2024-02-18T12:22:49.759Z,5.00
2024-02-18T12:25:16.988Z,3.80
2024-02-18T12:27:46.309Z,4.63
2024-02-18T12:30:15.654Z,4.03
2024-02-18T12:32:42.628Z,3.80
2024-02-18T12:35:09.612Z,3.90
2024-02-18T12:37:36.802Z,3.07
2024-02-18T12:40:04.941Z,5.60
2024-02-18T12:42:31.765Z,3.90
2024-02-18T12:47:28.258Z,4.67
2024-02-18T12:50:05.396Z,3.97
2024-02-18T12:52:32.329Z,3.63
2024-02-18T12:55:05.823Z,3.50
2024-02-18T12:57:32.882Z,3.97
2024-02-18T12:59:59.711Z,2.97
2024-02-18T13:02:27.163Z,3.63
2024-02-18T13:04:57.639Z,3.30
2024-02-18T13:07:24.919Z,4.63
2024-02-18T13:09:52.120Z,4.13
2024-02-18T13:12:18.938Z,3.53
2024-02-18T13:14:45.613Z,4.67
2024-02-18T13:17:13.344Z,3.90
2024-02-18T13:19:45.273Z,4.70
2024-02-18T13:22:16.511Z,3.87
2024-02-18T13:24:43.628Z,3.50
2024-02-18T13:27:10.281Z,4.13
2024-02-18T13:29:37.682Z,2.93
2024-02-18T13:32:04.732Z,5.50
2024-02-18T13:34:32.683Z,5.90
2024-02-18T13:37:00.725Z,3.40
2024-02-18T13:39:27.882Z,4.73
2024-02-18T13:41:56.249Z,3.63
2024-02-18T13:44:23.478Z,3.10
2024-02-18T13:46:50.102Z,3.67
2024-02-18T13:49:16.889Z,3.00
2024-02-18T13:51:43.968Z,2.67
2024-02-18T13:54:10.708Z,3.60
2024-02-18T13:56:37.884Z,2.67
2024-02-18T13:59:04.841Z,4.87
2024-02-18T14:01:38.144Z,4.27
2024-02-18T14:04:05.660Z,5.47
2024-02-18T14:06:33.558Z,3.53
2024-02-18T14:09:00.329Z,2.90
2024-02-18T14:11:27.455Z,4.50
2024-02-18T14:13:54.134Z,3.90
2024-02-18T14:16:25.939Z,5.10
2024-02-18T14:18:53.370Z,3.83
2024-02-18T14:21:20.270Z,2.80
2024-02-18T14:23:46.909Z,5.03
2024-02-18T14:26:13.551Z,3.20
2024-02-18T14:28:40.129Z,2.70
2024-02-18T14:31:06.876Z,4.70
2024-02-18T14:33:33.821Z,3.93
2024-02-18T14:36:00.526Z,3.43
2024-02-18T14:38:31.621Z,5.03
2024-02-18T14:40:58.341Z,3.30
2024-02-18T14:43:25.057Z,5.20
2024-02-18T14:45:51.921Z,3.60
2024-02-18T14:48:19.053Z,3.97
2024-02-18T14:50:49.019Z,4.90
2024-02-18T14:53:15.857Z,3.93
2024-02-18T14:55:43.098Z,3.67
2024-02-18T14:58:10.223Z,4.30
2024-02-18T15:00:37.028Z,3.70
2024-02-18T15:03:04.394Z,4.93
2024-02-18T15:05:31.269Z,4.13
2024-02-18T15:07:58.179Z,2.73
2024-02-18T15:10:25.148Z,5.27
2024-02-18T15:12:51.999Z,4.00
2024-02-18T15:15:18.684Z,2.90
2024-02-18T15:17:45.395Z,5.33
2024-02-18T15:20:12.517Z,3.40
2024-02-18T15:22:39.272Z,3.50
2024-02-18T15:25:07.256Z,3.93
2024-02-18T15:27:34.054Z,3.60
2024-02-18T15:30:00.859Z,3.53
2024-02-18T15:32:27.673Z,4.30
2024-02-18T15:34:54.639Z,3.33
2024-02-18T15:37:21.742Z,4.37
2024-02-18T15:39:48.405Z,4.20
2024-02-18T15:42:15.068Z,3.67
2024-02-18T15:44:41.681Z,4.30
2024-02-18T15:47:08.561Z,5.40
2024-02-18T15:49:35.452Z,4.37
2024-02-18T15:52:02.764Z,4.03
2024-02-18T15:54:29.620Z,4.20
2024-02-18T15:56:56.251Z,5.73
2024-02-18T15:59:22.921Z,4.77
2024-02-18T16:01:50.386Z,4.47
2024-02-18T16:04:17.181Z,3.70
2024-02-18T16:06:44.185Z,6.33
2024-02-18T16:09:11.665Z,4.90
2024-02-18T16:11:38.603Z,3.67
2024-02-18T16:14:05.426Z,5.07
2024-02-18T16:16:32.268Z,4.67
2024-02-18T16:18:59.122Z,4.90
2024-02-18T16:21:26.146Z,4.93
2024-02-18T16:23:59.682Z,3.93
2024-02-18T16:26:28.127Z,5.10
2024-02-18T16:28:54.880Z,4.60
2024-02-18T16:31:21.676Z,4.97
2024-02-18T16:33:48.483Z,5.27
2024-02-18T16:36:15.383Z,4.50
2024-02-18T16:38:43.554Z,5.50
2024-02-18T16:41:10.227Z,5.60
2024-02-18T16:43:37.043Z,4.00
2024-02-18T16:46:05.214Z,4.67
2024-02-18T16:48:33.607Z,4.90
2024-02-18T16:51:00.386Z,4.07
2024-02-18T16:53:27.000Z,5.00
2024-02-18T16:55:53.843Z,5.13
2024-02-18T16:58:20.628Z,3.80
2024-02-18T17:00:47.449Z,5.73
2024-02-18T17:03:15.309Z,6.73
2024-02-18T17:05:41.979Z,4.30
2024-02-18T17:08:10.254Z,6.57
2024-02-18T17:10:37.195Z,4.93
2024-02-18T17:13:05.994Z,5.30
2024-02-18T17:15:32.796Z,5.10
2024-02-18T17:18:00.018Z,4.77
2024-02-18T17:20:26.767Z,5.17
2024-02-18T17:22:53.636Z,4.87
2024-02-18T17:25:20.712Z,5.77
2024-02-18T17:27:48.272Z,7.20
2024-02-18T17:30:15.328Z,6.80
2024-02-18T17:32:42.206Z,6.00
2024-02-18T17:35:09.361Z,6.30
2024-02-18T17:37:36.558Z,7.20
2024-02-18T17:40:04.461Z,6.00
2024-02-18T17:42:31.167Z,6.67
2024-02-18T17:44:59.415Z,6.13
2024-02-18T17:47:29.314Z,8.47
2024-02-18T17:49:57.141Z,8.70
2024-02-18T17:52:24.025Z,8.00
2024-02-18T17:54:50.743Z,8.10
2024-02-18T17:57:17.562Z,9.43
2024-02-18T17:59:46.481Z,8.67
2024-02-18T18:02:13.262Z,9.43
2024-02-18T18:04:40.377Z,7.60
2024-02-18T18:07:07.200Z,8.17
2024-02-18T18:09:33.993Z,8.27
2024-02-18T18:12:00.893Z,6.43
2024-02-18T18:14:27.610Z,7.27
2024-02-18T18:16:54.317Z,6.37
2024-02-18T18:19:21.317Z,5.47
2024-02-18T18:21:48.044Z,7.33
2024-02-18T18:24:14.970Z,5.90
2024-02-18T18:26:42.089Z,6.43
2024-02-18T18:29:09.149Z,7.90
2024-02-18T18:31:35.842Z,6.10
2024-02-18T18:34:02.745Z,6.57
2024-02-18T18:36:29.934Z,7.37
2024-02-18T18:38:56.760Z,7.70
2024-02-18T18:41:23.599Z,6.70
2024-02-18T18:43:50.221Z,6.80
2024-02-18T18:46:16.951Z,7.67
2024-02-18T18:48:43.976Z,6.87
2024-02-18T18:51:10.662Z,6.60
2024-02-18T18:53:37.249Z,6.00
2024-02-18T18:56:04.244Z,5.63
2024-02-18T18:58:31.034Z,6.03
2024-02-18T19:00:57.974Z,5.87
2024-02-18T19:03:25.358Z,6.00
2024-02-18T19:05:52.015Z,6.10
2024-02-18T19:08:18.773Z,6.93
2024-02-18T19:10:45.422Z,7.57
2024-02-18T19:13:23.632Z,6.00
2024-02-18T19:15:59.235Z,9.23
2024-02-18T19:18:25.968Z,18.50
2024-02-18T19:20:52.727Z,14.13
2024-02-18T19:23:21.564Z,7.67
2024-02-18T19:25:48.352Z,7.30
2024-02-18T19:28:15.605Z,7.60
2024-02-18T19:30:42.495Z,6.00
2024-02-18T19:33:09.629Z,6.80
2024-02-18T19:35:37.820Z,7.80
2024-02-18T19:38:04.785Z,7.90
2024-02-18T19:40:34.504Z,9.17
2024-02-18T19:43:01.406Z,8.60
2024-02-18T19:45:28.290Z,10.50
2024-02-18T19:47:58.125Z,8.30
2024-02-18T19:50:25.392Z,9.70
2024-02-18T19:52:52.129Z,8.03
2024-02-18T19:55:19.019Z,7.50
2024-02-18T19:57:46.652Z,9.33
2024-02-18T20:00:13.660Z,12.13
2024-02-18T20:02:40.491Z,11.83
2024-02-18T20:05:08.662Z,12.37
2024-02-18T20:07:36.136Z,8.30
2024-02-18T20:10:04.169Z,6.83
2024-02-18T20:12:31.216Z,6.93
2024-02-18T20:14:58.295Z,6.20
2024-02-18T20:17:25.166Z,5.90
2024-02-18T20:19:52.944Z,5.73
2024-02-18T20:22:19.731Z,5.13
2024-02-18T20:24:52.575Z,5.93
2024-02-18T20:27:19.584Z,5.10
2024-02-18T20:29:46.310Z,6.20
2024-02-18T20:32:13.040Z,7.20
2024-02-18T20:34:43.234Z,6.40
2024-02-18T20:37:10.085Z,6.10
2024-02-18T20:39:41.685Z,8.20
2024-02-18T20:42:08.608Z,7.70
2024-02-18T20:44:35.898Z,9.67
2024-02-18T20:47:03.926Z,8.73
2024-02-18T20:49:31.457Z,8.33
2024-02-18T20:51:59.049Z,6.33
2024-02-18T20:54:25.758Z,7.07
2024-02-18T20:56:53.266Z,6.40
2024-02-18T20:59:21.526Z,6.70
2024-02-18T21:01:51.791Z,6.13
2024-02-18T21:04:19.258Z,6.10
2024-02-18T21:06:46.485Z,7.40
2024-02-18T21:09:14.050Z,8.27
2024-02-18T21:11:41.260Z,20.30
2024-02-18T21:14:07.927Z,23.77
2024-02-18T21:16:34.901Z,19.27
2024-02-18T21:19:01.768Z,12.23
2024-02-18T21:21:28.626Z,11.10
2024-02-18T21:23:55.276Z,11.47
2024-02-18T21:26:22.133Z,8.67
2024-02-18T21:28:50.578Z,8.53
2024-02-18T21:31:18.244Z,9.80
2024-02-18T21:33:45.606Z,8.37
2024-02-18T21:36:16.418Z,7.67
2024-02-18T21:38:43.386Z,6.53
2024-02-18T21:41:10.030Z,6.50
2024-02-18T21:43:36.675Z,9.83
2024-02-18T21:46:03.639Z,9.00
2024-02-18T21:48:30.361Z,6.80
2024-02-18T21:50:57.684Z,6.70
2024-02-18T21:53:24.338Z,7.10
2024-02-18T21:55:51.302Z,6.77
2024-02-18T21:58:18.020Z,6.23
2024-02-18T22:00:44.774Z,7.40
2024-02-18T22:03:11.811Z,8.60
2024-02-18T22:05:38.585Z,6.13
2024-02-18T22:08:06.626Z,7.57
2024-02-18T22:10:33.457Z,6.77
2024-02-18T22:13:00.311Z,7.53
2024-02-18T22:15:27.252Z,8.27
2024-02-18T22:17:56.037Z,7.30
2024-02-18T22:20:22.816Z,6.60
2024-02-18T22:22:49.436Z,8.00
2024-02-18T22:25:17.195Z,7.77
2024-02-18T22:27:44.083Z,6.37
2024-02-18T22:30:15.725Z,5.43
2024-02-18T22:32:42.898Z,7.27
2024-02-18T22:35:09.774Z,6.83
2024-02-18T22:37:36.766Z,8.93
2024-02-18T22:40:04.231Z,9.97
2024-02-18T22:42:31.165Z,7.63
2024-02-18T22:44:57.668Z,7.30
2024-02-18T22:47:24.283Z,8.97
2024-02-18T22:49:51.093Z,6.27
2024-02-18T22:52:17.892Z,7.43
2024-02-18T22:54:48.442Z,6.60
2024-02-18T22:57:15.646Z,6.77
2024-02-18T22:59:42.566Z,5.73
2024-02-18T23:02:09.525Z,6.93
2024-02-18T23:04:36.269Z,6.83
2024-02-18T23:07:07.591Z,6.47
2024-02-18T23:09:35.058Z,6.73
2024-02-18T23:12:02.144Z,7.00
2024-02-18T23:14:29.169Z,8.23
2024-02-18T23:16:55.878Z,6.50
2024-02-18T23:19:23.219Z,4.93
2024-02-18T23:21:50.043Z,5.63
2024-02-18T23:24:17.265Z,5.20
2024-02-18T23:26:43.991Z,4.90
2024-02-18T23:29:11.192Z,5.20
2024-02-18T23:31:38.959Z,5.27
2024-02-18T23:34:06.441Z,4.83
2024-02-18T23:36:33.350Z,5.73
2024-02-18T23:39:00.143Z,6.20
2024-02-18T23:41:26.812Z,5.17
2024-02-18T23:43:53.504Z,5.63
2024-02-18T23:46:20.302Z,5.53
2024-02-18T23:48:47.022Z,5.90
2024-02-18T23:51:13.988Z,6.13
2024-02-18T23:53:40.558Z,5.80
2024-02-18T23:56:09.294Z,5.83
2024-02-18T23:58:36.272Z,6.53
